Time;durP1;ratioP1;P1;durP2;ratioP2;P2;SDS_P1;SDS_P2;PMS_P1;PMS_P2;Temp;Humidity;BMP_temperature;BMP_pressure;BME280_temperature;BME280_humidity;BME280_pressure;Samples;Min_cycle;Max_cycle;Signal;HPM_P1;HPM_P2
2022/02/09 00:04:40;;;;;;;12.40;6.32;;;11.10;88.20;;;;;;6128739;22;96455;-71
2022/02/09 00:07:13;;;;;;;18.52;6.68;;;11.20;88.10;;;;;;6155541;22;96451;-71
2022/02/09 00:09:44;;;;;;;12.57;7.00;;;11.10;87.80;;;;;;6156052;22;92303;-71
2022/02/09 00:12:20;;;;;;;12.98;6.68;;;11.20;88.10;;;;;;6129399;22;92930;-71
2022/02/09 00:15:35;;;;;;;9.38;6.28;;;11.20;87.70;;;;;;6155859;22;92917;-71
2022/02/09 00:28:29;;;;;;;8.57;6.10;;;11.20;87.70;;;;;;6132297;22;92990;-71
2022/02/09 01:51:11;;;;;;;10.93;5.93;;;11.30;86.30;;;;;;6156350;22;92418;-75
2022/02/09 01:57:13;;;;;;;11.30;6.15;;;11.20;86.10;;;;;;6154657;22;92397;-75
2022/02/09 01:59:42;;;;;;;10.48;6.38;;;11.20;86.00;;;;;;6154937;22;92353;-75
2022/02/09 02:02:10;;;;;;;13.30;6.18;;;11.20;85.80;;;;;;6155640;22;93255;-76
2022/02/09 02:04:38;;;;;;;10.43;5.93;;;11.20;85.90;;;;;;6154516;22;92618;-75
2022/02/09 02:07:14;;;;;;;10.63;6.60;;;11.20;85.80;;;;;;6129563;22;92449;-75
2022/02/09 02:09:42;;;;;;;7.88;5.25;;;11.20;85.50;;;;;;6154983;22;91638;-75
2022/02/09 02:12:15;;;;;;;12.02;5.68;;;11.20;85.70;;;;;;6129199;22;95981;-75
2022/02/09 02:14:55;;;;;;;10.35;6.10;;;11.20;85.70;;;;;;6154484;22;95712;-75
2022/02/09 02:19:56;;;;;;;7.13;5.13;;;11.10;85.70;;;;;;6128836;22;105274;-75
2022/02/09 02:32:44;;;;;;;8.80;5.00;;;11.20;85.00;;;;;;6155482;22;93279;-75
2022/02/09 03:10:44;;;;;;;10.55;5.65;;;11.20;84.60;;;;;;6097625;23;94794;-75
2022/02/09 03:15:43;;;;;;;9.07;5.07;;;11.20;84.70;;;;;;6099035;23;93605;-75
2022/02/09 03:23:28;;;;;;;6.28;5.38;;;11.20;84.70;;;;;;6099142;23;92420;-75
2022/02/09 03:50:45;;;;;;;9.18;5.38;;;11.00;84.70;;;;;;6138417;22;92914;-75
2022/02/09 03:56:12;;;;;;;7.03;4.90;;;11.00;84.80;;;;;;6155409;22;91630;-75
2022/02/09 03:58:35;;;;;;;9.73;5.07;;;11.00;84.50;;;;;;6133081;22;93207;-75
2022/02/09 04:01:03;;;;;;;11.85;5.22;;;11.00;84.90;;;;;;6128732;22;92990;-75
2022/02/09 04:03:30;;;;;;;8.70;4.80;;;11.00;84.90;;;;;;6102117;22;94843;-75
2022/02/09 04:05:57;;;;;;;8.45;5.53;;;11.00;84.70;;;;;;6103616;22;92528;-75
2022/02/09 04:08:29;;;;;;;8.75;5.22;;;11.00;84.80;;;;;;6129645;22;93086;-75
2022/02/09 04:11:15;;;;;;;10.02;5.10;;;11.00;84.90;;;;;;6105800;22;95364;-76
2022/02/09 04:14:11;;;;;;;11.40;5.72;;;11.00;84.80;;;;;;6156455;22;92292;-76
2022/02/09 04:19:22;;;;;;;11.23;6.32;;;11.00;84.90;;;;;;6131612;22;93010;-75
2022/02/09 04:38:49;;;;;;;11.40;6.38;;;10.90;84.80;;;;;;6129676;22;92486;-75
2022/02/09 04:49:35;;;;;;;9.43;6.32;;;11.00;85.00;;;;;;6156836;22;91581;-75
2022/02/09 04:54:53;;;;;;;7.22;6.25;;;10.90;84.70;;;;;;6156292;22;92986;-75
2022/02/09 05:17:42;;;;;;;9.93;7.13;;;10.90;84.90;;;;;;6156315;22;92873;-75
2022/02/09 05:24:47;;;;;;;9.35;6.20;;;10.80;84.80;;;;;;6154538;22;95723;-75
2022/02/09 05:29:43;;;;;;;8.40;6.10;;;10.80;84.70;;;;;;6128935;22;92376;-75
2022/02/09 05:32:10;;;;;;;7.53;6.05;;;10.80;84.80;;;;;;6104889;22;92421;-75
2022/02/09 05:34:37;;;;;;;7.10;5.72;;;10.80;84.90;;;;;;6129232;22;93240;-76
2022/02/09 05:37:04;;;;;;;7.88;6.55;;;10.80;84.80;;;;;;6129242;22;95545;-75
2022/02/09 05:39:31;;;;;;;9.35;6.47;;;10.80;85.10;;;;;;6156467;22;92350;-75
2022/02/09 05:41:58;;;;;;;8.68;6.00;;;10.80;84.80;;;;;;6129373;22;91704;-75
2022/02/09 05:44:25;;;;;;;8.52;5.82;;;10.80;84.80;;;;;;6155943;22;93020;-76
2022/02/09 05:52:16;;;;;;;8.85;6.55;;;10.80;84.90;;;;;;6153321;22;92496;-75
2022/02/09 05:59:49;;;;;;;15.40;7.75;;;10.80;85.20;;;;;;6156360;22;92485;-75
2022/02/09 06:02:19;;;;;;;9.30;6.88;;;10.80;85.50;;;;;;6154532;22;92438;-75
2022/02/09 06:04:46;;;;;;;9.77;7.30;;;10.80;85.40;;;;;;6153595;22;94412;-75
2022/02/09 06:07:14;;;;;;;11.35;6.63;;;10.80;85.80;;;;;;6156292;22;97500;-75
2022/02/09 06:09:42;;;;;;;10.43;7.18;;;10.80;85.60;;;;;;6154610;22;92377;-75
2022/02/09 06:12:15;;;;;;;10.50;6.93;;;10.80;85.70;;;;;;6154223;22;92529;-75
2022/02/09 06:19:55;;;;;;;11.50;7.60;;;10.90;85.90;;;;;;6154857;22;92298;-75
2022/02/09 06:22:22;;;;;;;13.45;7.25;;;10.90;85.90;;;;;;6154641;22;92412;-75
2022/02/09 06:24:51;;;;;;;9.10;7.03;;;10.90;85.70;;;;;;6153829;22;95904;-75
2022/02/09 06:27:18;;;;;;;11.10;7.47;;;10.90;85.80;;;;;;6155832;22;92696;-76
2022/02/09 06:29:46;;;;;;;11.73;7.70;;;10.90;86.00;;;;;;6129310;22;92379;-75
2022/02/09 06:32:15;;;;;;;11.85;7.57;;;10.90;85.70;;;;;;6154528;22;91801;-75
2022/02/09 06:34:43;;;;;;;10.25;7.72;;;10.90;85.40;;;;;;6155194;22;105187;-75
2022/02/09 06:37:16;;;;;;;9.15;7.22;;;10.90;85.40;;;;;;6153846;22;93068;-75
2022/02/09 06:39:46;;;;;;;10.10;7.73;;;10.90;85.40;;;;;;6154454;22;94952;-75
2022/02/09 06:42:21;;;;;;;13.45;7.85;;;10.90;85.30;;;;;;6153948;22;92407;-75
2022/02/09 06:44:50;;;;;;;9.68;7.57;;;10.90;85.70;;;;;;6153869;22;95721;-75
2022/02/09 06:47:22;;;;;;;8.60;7.55;;;10.90;85.30;;;;;;6156008;22;92795;-75
2022/02/09 06:50:16;;;;;;;9.18;7.75;;;10.90;85.20;;;;;;6129144;22;92467;-75
2022/02/09 06:52:43;;;;;;;11.77;8.10;;;10.90;85.20;;;;;;6155427;22;92483;-75
2022/02/09 06:55:21;;;;;;;;;;;10.80;85.30;;;;;;6155746;22;93159;-75
2022/02/09 07:00:21;;;;;;;10.85;7.00;;;10.80;85.30;;;;;;6155974;22;92481;-75
2022/02/09 07:02:49;;;;;;;11.80;7.30;;;10.90;85.40;;;;;;6129724;22;92478;-75
2022/02/09 07:05:17;;;;;;;7.80;6.97;;;10.80;85.50;;;;;;6153668;22;94890;-75
2022/02/09 07:07:45;;;;;;;8.75;6.68;;;10.80;85.50;;;;;;6128399;22;97954;-75
2022/02/09 07:10:13;;;;;;;11.27;7.55;;;10.80;85.40;;;;;;6155344;22;92294;-75
2022/02/09 07:12:41;;;;;;;11.77;7.80;;;10.90;85.40;;;;;;6155582;22;92425;-75
2022/02/09 07:15:15;;;;;;;10.05;7.70;;;10.90;84.90;;;;;;6155238;22;93040;-76
2022/02/09 07:17:44;;;;;;;11.73;7.80;;;10.90;85.20;;;;;;6155443;22;92945;-76
2022/02/09 07:20:19;;;;;;;9.35;7.40;;;10.90;85.20;;;;;;6128411;22;92434;-75
2022/02/09 07:22:49;;;;;;;10.80;7.22;;;10.90;85.10;;;;;;6155867;22;91625;-75
2022/02/09 07:25:18;;;;;;;9.82;7.15;;;10.90;85.10;;;;;;6154993;22;92869;-75
2022/02/09 07:27:52;;;;;;;11.05;7.82;;;10.90;85.10;;;;;;6129354;22;92678;-75
2022/02/09 07:30:23;;;;;;;9.98;7.60;;;10.90;85.00;;;;;;6153959;22;94822;-75
2022/02/09 07:32:52;;;;;;;7.55;6.80;;;10.90;84.90;;;;;;6155654;22;92250;-75
2022/02/09 07:35:20;;;;;;;9.77;7.07;;;10.90;84.90;;;;;;6155003;22;92921;-75
2022/02/09 07:37:47;;;;;;;11.73;6.93;;;10.90;84.80;;;;;;6129119;22;93475;-75
2022/02/09 07:40:15;;;;;;;10.07;7.07;;;10.90;84.90;;;;;;6128347;22;92414;-75
2022/02/09 07:42:49;;;;;;;8.98;6.85;;;11.00;84.80;;;;;;6156483;22;92411;-75
2022/02/09 07:51:00;;;;;;;7.40;5.93;;;11.00;84.40;;;;;;6118954;23;92927;-75
2022/02/09 07:53:37;;;;;;;8.38;6.28;;;11.00;84.50;;;;;;6126950;23;92761;-75
2022/02/09 07:56:04;;;;;;;9.65;5.82;;;11.10;84.40;;;;;;6100877;23;95556;-75
2022/02/09 07:58:31;;;;;;;8.50;6.20;;;11.10;84.10;;;;;;6100428;23;95435;-75
2022/02/09 08:00:58;;;;;;;6.68;5.28;;;11.10;84.00;;;;;;6101022;23;92419;-75
2022/02/09 08:03:24;;;;;;;7.32;5.45;;;11.20;83.60;;;;;;6126692;23;92397;-75
2022/02/09 08:05:51;;;;;;;7.65;5.47;;;11.20;83.60;;;;;;6126179;23;93290;-75
2022/02/09 08:08:18;;;;;;;9.20;5.18;;;11.30;83.40;;;;;;6099472;23;96560;-77
2022/02/09 08:10:53;;;;;;;8.13;5.10;;;11.30;83.50;;;;;;6126802;23;92339;-76
2022/02/09 08:34:18;;;;;;;5.63;3.90;;;11.50;82.60;;;;;;6079298;23;92400;-76
2022/02/09 08:36:45;;;;;;;6.60;4.72;;;11.50;82.40;;;;;;6126112;23;92951;-76
2022/02/09 08:39:15;;;;;;;5.55;4.50;;;11.60;82.40;;;;;;6099952;23;95357;-76
2022/02/09 08:41:42;;;;;;;6.07;4.10;;;11.60;82.40;;;;;;6099984;23;92359;-71
2022/02/09 08:44:09;;;;;;;6.88;4.95;;;11.60;82.40;;;;;;6099245;23;93163;-71
2022/02/09 08:46:37;;;;;;;8.23;4.60;;;11.70;82.40;;;;;;6097982;23;95468;-71
2022/02/09 08:49:04;;;;;;;6.45;4.30;;;11.70;81.90;;;;;;6074781;23;97037;-71
2022/02/09 08:51:33;;;;;;;9.10;4.82;;;11.80;82.00;;;;;;6145127;22;92441;-71
2022/02/09 08:54:01;;;;;;;6.03;4.65;;;11.80;81.70;;;;;;6129186;22;92704;-71
2022/02/09 08:56:29;;;;;;;8.20;5.03;;;11.80;81.90;;;;;;6104310;22;93173;-71
2022/02/09 08:59:00;;;;;;;10.05;5.40;;;11.80;81.90;;;;;;6104845;22;92847;-71
2022/02/09 09:01:43;;;;;;;10.20;5.30;;;11.80;81.90;;;;;;6104125;22;92358;-71
2022/02/09 09:06:44;;;;;;;8.38;5.75;;;11.90;81.60;;;;;;6129837;22;93023;-71
2022/02/09 09:09:25;;;;;;;10.35;5.63;;;11.80;81.60;;;;;;6128142;22;95554;-71
2022/02/09 10:35:20;;;;;;;7.63;4.82;;;12.30;84.10;;;;;;6153699;22;95762;-71
2022/02/09 10:37:47;;;;;;;6.00;4.60;;;12.30;84.00;;;;;;6128565;22;95443;-71
2022/02/09 10:40:37;;;;;;;5.18;4.43;;;12.30;84.10;;;;;;6128887;22;92374;-71
2022/02/09 10:43:27;;;;;;;7.32;3.80;;;12.30;84.10;;;;;;6155413;22;92452;-71
2022/02/09 10:46:09;;;;;;;5.82;4.80;;;12.30;84.00;;;;;;6154918;22;94351;-71
2022/02/09 10:48:48;;;;;;;6.57;4.90;;;12.30;84.20;;;;;;6128415;22;92891;-71
2022/02/09 10:54:17;;;;;;;6.72;5.32;;;12.30;84.40;;;;;;6155688;22;91609;-71
2022/02/09 10:56:52;;;;;;;5.32;4.43;;;12.30;84.80;;;;;;6128253;22;95814;-71
2022/02/09 10:59:24;;;;;;;8.30;4.95;;;12.30;84.70;;;;;;6155194;22;93646;-71
2022/02/09 11:01:53;;;;;;;5.88;4.82;;;12.20;84.70;;;;;;6126671;22;94912;-71
2022/02/09 11:04:21;;;;;;;5.18;4.32;;;12.30;84.70;;;;;;6128124;22;92455;-71
2022/02/09 11:06:49;;;;;;;5.00;4.47;;;12.40;84.40;;;;;;6127640;22;95606;-71
2022/02/09 11:09:25;;;;;;;7.85;4.88;;;12.50;84.20;;;;;;6104986;22;95567;-71
2022/02/09 11:11:52;;;;;;;6.03;4.35;;;12.50;84.00;;;;;;6155114;22;92498;-76
2022/02/09 11:14:22;;;;;;;5.47;4.00;;;12.50;84.10;;;;;;6129263;22;92399;-76
2022/02/09 11:16:58;;;;;;;5.95;4.40;;;12.60;83.80;;;;;;6155802;22;93062;-71
2022/02/09 11:19:34;;;;;;;6.22;3.90;;;12.60;83.70;;;;;;6130251;22;94101;-75
2022/02/09 11:22:23;;;;;;;7.07;4.53;;;12.70;83.70;;;;;;6130334;22;92813;-76
2022/02/09 11:25:11;;;;;;;6.13;4.60;;;12.80;83.30;;;;;;6156295;22;92376;-76
2022/02/09 11:27:45;;;;;;;7.85;4.57;;;12.90;82.90;;;;;;6154510;22;94841;-75
2022/02/09 11:30:43;;;;;;;6.03;4.05;;;12.90;82.90;;;;;;6129735;22;97836;-71
2022/02/09 11:33:31;;;;;;;8.10;4.32;;;13.00;82.60;;;;;;6129817;22;92576;-76
2022/02/09 11:36:28;;;;;;;9.50;4.13;;;13.10;82.20;;;;;;6130777;22;92362;-76
2022/02/09 11:39:04;;;;;;;4.70;3.50;;;13.00;81.60;;;;;;6155955;22;93069;-71
2022/02/09 11:41:37;;;;;;;8.70;4.25;;;13.00;81.60;;;;;;6128936;22;95212;-71
2022/02/09 11:44:11;;;;;;;7.75;3.92;;;13.00;81.30;;;;;;6104887;22;92411;-71
2022/02/09 11:52:53;;;;;;;8.93;4.00;;;13.00;81.00;;;;;;6124240;23;95370;-71
2022/02/09 11:58:43;;;;;;;11.07;3.40;;;12.90;81.00;;;;;;6126285;23;92717;-71
2022/02/09 12:01:33;;;;;;;4.60;2.90;;;12.80;81.50;;;;;;6099327;23;95652;-72
2022/02/09 12:12:10;;;;;;;4.45;3.30;;;12.80;81.70;;;;;;6123572;23;95689;-71
2022/02/09 12:15:13;;;;;;;6.57;3.33;;;12.80;81.50;;;;;;6126087;23;93513;-71
2022/02/09 12:17:51;;;;;;;4.90;2.92;;;12.80;81.50;;;;;;6098698;23;92502;-71
2022/02/09 12:20:29;;;;;;;5.93;2.70;;;12.90;81.50;;;;;;6099452;23;92416;-71
2022/02/09 12:23:44;;;;;;;6.63;2.78;;;12.90;81.50;;;;;;6097628;23;98293;-71
2022/02/09 12:25:50;;;;;;;7.10;3.53;;;12.90;82.00;;;;;;6094523;23;98039;-71
2022/02/09 12:28:20;;;;;;;6.28;3.33;;;12.90;82.30;;;;;;6125651;23;92803;-71
2022/02/09 12:30:48;;;;;;;6.60;3.38;;;13.00;82.40;;;;;;6098746;23;92496;-71
2022/02/09 12:33:25;;;;;;;5.93;3.33;;;13.10;82.40;;;;;;6125562;23;93230;-71
2022/02/09 12:35:52;;;;;;;7.00;3.20;;;13.10;82.20;;;;;;6099291;23;92861;-71
2022/02/09 12:38:29;;;;;;;5.55;3.28;;;13.00;82.40;;;;;;6099861;23;92440;-71
2022/02/09 12:41:09;;;;;;;7.00;3.55;;;13.10;82.80;;;;;;6099318;23;91747;-71
2022/02/09 12:43:53;;;;;;;4.10;3.25;;;13.00;83.60;;;;;;6125382;23;93103;-71
2022/02/09 12:46:29;;;;;;;5.63;3.50;;;12.90;84.00;;;;;;6099213;23;95544;-71
2022/02/09 12:49:05;;;;;;;5.32;3.58;;;12.80;84.90;;;;;;6124094;23;94733;-71
2022/02/09 12:51:32;;;;;;;7.10;3.90;;;12.80;84.50;;;;;;6099251;23;92470;-71
2022/02/09 12:54:04;;;;;;;7.97;3.95;;;12.80;84.30;;;;;;6075337;23;95811;-71
2022/02/09 12:56:38;;;;;;;6.53;3.55;;;12.80;84.00;;;;;;6125572;23;92809;-71
2022/02/09 12:59:13;;;;;;;7.43;3.70;;;12.80;83.80;;;;;;6099138;23;92384;-71
2022/02/09 13:01:47;;;;;;;5.90;3.75;;;12.70;83.90;;;;;;6125856;23;92299;-72
2022/02/09 13:04:31;;;;;;;;;;;12.70;84.40;;;;;;6126111;23;93203;-71
2022/02/09 13:07:00;;;;;;;4.43;3.63;;;12.50;85.20;;;;;;6127369;23;92693;-71
2022/02/09 13:09:28;;;;;;;9.02;3.88;;;12.60;85.40;;;;;;6125940;23;92321;-71
2022/02/09 13:11:55;;;;;;;6.75;3.95;;;12.50;85.40;;;;;;6125264;23;92378;-72
2022/02/09 13:14:36;;;;;;;10.25;4.53;;;12.60;85.70;;;;;;6097970;23;95534;-71
2022/02/09 14:02:49;;;;;;;6.85;3.85;;;12.20;87.70;;;;;;6155634;22;92388;-71
2022/02/09 14:03:35;;;;;;;4.43;2.85;;;12.20;87.40;;;;;;6128090;22;94212;-73
2022/02/09 14:11:35;;;;;;;3.65;2.97;;;12.10;88.40;;;;;;6153179;22;95323;-71
2022/02/09 14:52:49;;;;;;;4.25;2.30;;;12.20;88.40;;;;;;6107198;22;92531;-74
2022/02/09 14:58:10;;;;;;;2.03;1.85;;;12.10;89.00;;;;;;6133638;22;92602;-73
2022/02/09 15:01:45;;;;;;;1.80;1.70;;;12.10;89.10;;;;;;6133423;22;92361;-73
2022/02/09 15:06:44;;;;;;;3.38;2.60;;;12.10;89.40;;;;;;6132306;22;96107;-74
2022/02/09 15:09:04;;;;;;;2.85;2.47;;;12.10;89.00;;;;;;6132520;22;95783;-77
2022/02/09 15:14:20;;;;;;;1.88;1.52;;;12.10;88.90;;;;;;6107678;22;92888;-74
2022/02/09 15:17:24;;;;;;;2.72;2.53;;;12.10;88.90;;;;;;6111859;22;92801;-74
2022/02/09 15:22:33;;;;;;;4.53;3.13;;;12.10;88.50;;;;;;6133533;22;92793;-73
2022/02/09 15:25:03;;;;;;;3.92;3.33;;;12.10;88.50;;;;;;6107608;22;92494;-74
2022/02/09 15:27:30;;;;;;;7.40;4.32;;;12.10;88.70;;;;;;6106690;22;96341;-72
2022/02/09 15:29:57;;;;;;;4.50;3.78;;;12.00;88.80;;;;;;6106506;22;93913;-72
2022/02/09 15:32:33;;;;;;;4.32;2.83;;;12.10;88.60;;;;;;6105647;22;95915;-75
2022/02/09 15:35:07;;;;;;;2.45;1.90;;;12.00;88.10;;;;;;6134197;22;93218;-78
2022/02/09 15:59:25;;;;;;;2.55;2.17;;;11.60;87.90;;;;;;6152596;22;95389;-77
2022/02/09 16:24:12;;;;;;;2.13;1.85;;;11.50;88.20;;;;;;6103677;22;92734;-71
2022/02/09 16:37:49;;;;;;;5.05;3.03;;;11.40;88.70;;;;;;6105461;22;92364;-72
2022/02/09 16:46:35;;;;;;;6.63;4.82;;;11.40;89.00;;;;;;6129899;22;94624;-72
2022/02/09 16:48:41;;;;;;;6.00;4.63;;;11.30;89.10;;;;;;6103313;22;92723;-71
2022/02/09 16:51:13;;;;;;;5.88;4.65;;;11.30;89.30;;;;;;6155454;22;92434;-71
2022/02/09 17:20:47;;;;;;;10.70;7.20;;;10.90;89.00;;;;;;6127683;22;95598;-74
2022/02/09 17:23:14;;;;;;;10.82;7.55;;;10.90;89.00;;;;;;6129496;22;92691;-76
2022/02/09 17:25:41;;;;;;;14.90;7.88;;;10.90;88.90;;;;;;6128459;22;99144;-74
2022/02/09 17:28:10;;;;;;;9.18;6.55;;;10.90;88.80;;;;;;6129159;22;92908;-70
2022/02/09 17:57:49;;;;;;;12.00;8.15;;;10.70;89.10;;;;;;6153491;22;93222;-71
2022/02/09 18:00:16;;;;;;;14.13;8.52;;;10.80;89.10;;;;;;6153791;22;95616;-71
2022/02/09 18:02:52;;;;;;;13.45;9.98;;;10.70;89.10;;;;;;6155255;22;92428;-71
2022/02/09 18:05:29;;;;;;;21.20;13.23;;;10.70;89.10;;;;;;6153374;22;91796;-71
2022/02/09 18:08:04;;;;;;;14.98;9.70;;;10.70;89.10;;;;;;6154592;22;93363;-70
2022/02/09 18:29:33;;;;;;;13.43;7.53;;;10.60;89.60;;;;;;6057145;22;96526;-71
2022/02/09 18:40:53;;;;;;;21.70;10.65;;;10.60;89.60;;;;;;6152712;22;95635;-71
2022/02/09 19:02:10;;;;;;;19.20;10.23;;;10.50;89.50;;;;;;6153936;22;93188;-71
2022/02/09 19:07:14;;;;;;;17.55;10.77;;;10.60;89.70;;;;;;6151181;22;94838;-71
2022/02/09 19:15:44;;;;;;;20.60;9.40;;;10.60;89.90;;;;;;6152917;22;92948;-71
2022/02/09 19:29:47;;;;;;;16.30;9.80;;;10.50;90.00;;;;;;6152413;22;92533;-71
2022/02/09 19:48:18;;;;;;;18.20;12.20;;;10.50;90.00;;;;;;6155422;22;92875;-71
2022/02/09 19:51:11;;;;;;;21.17;11.82;;;10.50;90.10;;;;;;6153342;22;92826;-71
2022/02/09 19:53:43;;;;;;;29.20;14.77;;;10.50;90.00;;;;;;6155682;22;91619;-71
2022/02/09 19:56:14;;;;;;;21.77;12.38;;;10.50;90.00;;;;;;6155155;22;93217;-71
2022/02/09 19:58:46;;;;;;;26.35;13.57;;;10.50;90.00;;;;;;6153498;22;93302;-71
2022/02/09 20:01:17;;;;;;;25.35;12.68;;;10.50;90.00;;;;;;6152394;22;94939;-71
2022/02/09 20:03:44;;;;;;;20.20;12.80;;;10.60;90.00;;;;;;6153719;22;92408;-71
2022/02/09 20:06:12;;;;;;;21.65;13.00;;;10.50;89.90;;;;;;6155121;22;93284;-71
2022/02/09 20:08:39;;;;;;;23.52;13.88;;;10.60;90.00;;;;;;6153407;22;93018;-71
2022/02/09 20:11:10;;;;;;;21.77;12.63;;;10.50;90.00;;;;;;6153869;22;92452;-71
2022/02/09 20:13:37;;;;;;;23.63;13.60;;;10.50;90.00;;;;;;6155337;22;92460;-71
2022/02/09 20:16:04;;;;;;;24.35;14.45;;;10.50;90.00;;;;;;6152632;22;95603;-71
2022/02/09 20:18:32;;;;;;;22.58;14.60;;;10.50;89.90;;;;;;6155521;22;93115;-71
2022/02/09 20:21:00;;;;;;;24.95;14.30;;;10.50;90.00;;;;;;6154786;22;96369;-71
2022/02/09 20:23:28;;;;;;;24.90;14.52;;;10.60;90.00;;;;;;6155229;22;92613;-71
2022/02/09 20:25:55;;;;;;;24.23;14.15;;;10.50;90.00;;;;;;6151663;22;95672;-71
2022/02/09 20:28:23;;;;;;;26.67;14.25;;;10.50;90.00;;;;;;6153411;22;95358;-71
2022/02/09 20:30:59;;;;;;;28.05;15.50;;;10.50;90.00;;;;;;6153024;22;92686;-71
2022/02/09 20:33:37;;;;;;;25.48;15.48;;;10.50;90.00;;;;;;6155380;22;92424;-71
2022/02/09 20:36:06;;;;;;;23.90;14.15;;;10.50;90.10;;;;;;6155014;22;93126;-71
2022/02/09 20:38:34;;;;;;;23.55;14.50;;;10.50;90.10;;;;;;6155041;22;93065;-71
2022/02/09 20:41:06;;;;;;;21.95;14.18;;;10.50;90.10;;;;;;6155064;22;92315;-71
2022/02/09 20:43:41;;;;;;;25.83;15.10;;;10.50;90.00;;;;;;6153791;22;91802;-71
2022/02/09 20:46:08;;;;;;;27.48;15.35;;;10.50;90.00;;;;;;6154010;22;92942;-71
2022/02/09 20:48:35;;;;;;;23.25;14.70;;;10.50;90.10;;;;;;6152171;22;94107;-71
2022/02/09 20:51:02;;;;;;;23.65;14.35;;;10.50;90.10;;;;;;6151062;22;94873;-71
2022/02/09 20:53:34;;;;;;;23.83;14.18;;;10.50;90.10;;;;;;6155128;22;92527;-70
2022/02/09 20:56:03;;;;;;;27.40;15.48;;;10.50;90.10;;;;;;6127959;22;93221;-71
2022/02/09 20:58:34;;;;;;;22.45;14.10;;;10.50;90.10;;;;;;6154736;22;93062;-71
2022/02/09 21:01:04;;;;;;;27.67;15.07;;;10.50;90.10;;;;;;6154744;22;92459;-71
2022/02/09 21:08:57;;;;;;;22.63;13.93;;;10.60;89.90;;;;;;6154611;22;92931;-71
2022/02/09 21:29:09;;;;;;;22.35;14.80;;;10.60;89.90;;;;;;6154858;22;93207;-75
2022/02/09 21:53:36;;;;;;;29.50;15.90;;;10.70;89.60;;;;;;6132587;22;93033;-75
2022/02/09 21:55:51;;;;;;;28.90;16.27;;;10.70;89.80;;;;;;6154543;22;92292;-75
2022/02/09 21:58:34;;;;;;;29.92;16.83;;;10.70;89.90;;;;;;6130998;22;92456;-75
2022/02/09 22:06:52;;;;;;;29.00;16.50;;;10.70;89.50;;;;;;6154910;22;92321;-75
2022/02/09 22:20:35;;;;;;;35.50;18.75;;;10.60;89.50;;;;;;6132516;22;92787;-75
2022/02/09 22:28:15;;;;;;;37.67;18.88;;;10.60;89.60;;;;;;6126966;22;105943;-75
2022/02/09 22:50:24;;;;;;;39.67;19.67;;;10.60;89.50;;;;;;6154844;22;92461;-75
2022/02/09 22:55:43;;;;;;;45.15;21.85;;;10.60;89.70;;;;;;6098362;23;95681;-75
2022/02/09 22:58:13;;;;;;;48.25;22.90;;;10.60;89.70;;;;;;6125026;23;91827;-75
2022/02/09 23:03:19;;;;;;;42.95;22.48;;;10.60;89.70;;;;;;6124571;23;92368;-75
